CheckWX is a tool to help pilots better visualize weather data.  It is not intended as a substitute for an official pre-flight weather briefing.

20:48:29 UTC

KOLG METAR
Solon Springs Municipal Airport
Solon Springs, Wisconsin, USA
Current

33 mins ago

KOLG 232015Z AUTO 22006KT 10SM SCT060 16/01 A3003 RMK AO1
Observed
Apr-23 @ 20:15 UTC
Wind
  • 220° at 6 KTS
Visibility
10 SM
Flight Rules
VFR
Cloud Levels
  • Scattered at 6,000' AGL
Temperature
16°C / 61°F
Dewpoint
C / 34°F
Humidity
36%
Altimeter
30.03" Hg
Pressure
1016.92 hPa
Previous

53 mins ago

KOLG 231955Z AUTO 14005KT 10SM SCT060 16/01 A3004 RMK AO1
Observed
Apr-23 @ 19:55 UTC
Wind
  • 140° at 5 KTS
Visibility
10 SM
Flight Rules
VFR
Cloud Levels
  • Scattered at 6,000' AGL
Temperature
16°C / 61°F
Dewpoint
C / 34°F
Humidity
36%
Altimeter
30.04" Hg
Pressure
1017.32 hPa
Previous

1 hour ago

KOLG 231935Z AUTO 00000KT 10SM CLR 16/01 A3005 RMK AO1
Observed
Apr-23 @ 19:35 UTC
Visibility
10 SM
Flight Rules
VFR
Cloud Levels
  • Clear skies
Temperature
16°C / 61°F
Dewpoint
C / 34°F
Humidity
36%
Altimeter
30.05" Hg
Pressure
1017.62 hPa